createdAt,value
2023-01-03T00:00:03.015Z,6.65
2023-01-03T00:01:03.061Z,6.62
2023-01-03T00:02:02.885Z,6.59
2023-01-03T00:03:02.772Z,6.61
2023-01-03T00:04:02.919Z,6.61
2023-01-03T00:05:02.875Z,6.59
2023-01-03T00:06:03.041Z,6.58
2023-01-03T00:07:02.934Z,6.53
2023-01-03T00:08:02.815Z,6.51
2023-01-03T00:09:02.762Z,6.53
2023-01-03T00:10:02.931Z,6.53
2023-01-03T00:11:02.690Z,6.53
2023-01-03T00:12:02.740Z,6.53
2023-01-03T00:13:02.766Z,6.51
2023-01-03T00:14:02.701Z,6.46
2023-01-03T00:15:02.680Z,6.46
2023-01-03T00:16:02.811Z,6.44
2023-01-03T00:17:02.750Z,6.46
2023-01-03T00:18:02.896Z,6.44
2023-01-03T00:19:02.780Z,6.41
2023-01-03T00:20:02.852Z,6.43
2023-01-03T00:21:02.669Z,6.41
2023-01-03T00:22:02.597Z,6.41
2023-01-03T00:23:02.940Z,6.43
2023-01-03T00:24:02.854Z,6.41
2023-01-03T00:25:02.625Z,6.41
2023-01-03T00:26:02.760Z,6.41
2023-01-03T00:27:02.576Z,6.35
2023-01-03T00:28:02.558Z,6.33
2023-01-03T00:29:02.640Z,6.30
2023-01-03T00:30:02.532Z,6.28
2023-01-03T00:31:02.614Z,6.22
2023-01-03T00:32:02.522Z,6.19
2023-01-03T00:33:02.561Z,6.18
2023-01-03T00:34:02.601Z,6.14
2023-01-03T00:35:05.369Z,6.13
2023-01-03T00:36:02.443Z,6.16
2023-01-03T00:37:02.478Z,6.16
2023-01-03T00:38:02.612Z,6.18
2023-01-03T00:39:02.616Z,6.21
2023-01-03T00:40:02.514Z,6.21
2023-01-03T00:41:02.652Z,6.18
2023-01-03T00:42:02.493Z,6.16
2023-01-03T00:43:02.422Z,6.16
2023-01-03T00:44:02.399Z,6.14
2023-01-03T00:45:02.424Z,6.14
2023-01-03T00:46:02.439Z,6.16
2023-01-03T00:47:02.440Z,6.13
2023-01-03T00:48:02.522Z,6.10
2023-01-03T00:49:02.401Z,6.09
2023-01-03T00:50:02.323Z,6.06
2023-01-03T00:51:02.280Z,6.04
2023-01-03T00:52:02.329Z,6.01
2023-01-03T00:53:02.426Z,6.00
2023-01-03T00:54:02.562Z,6.01
2023-01-03T00:55:03.021Z,6.00
2023-01-03T00:56:02.256Z,5.96
2023-01-03T00:57:02.260Z,5.98
2023-01-03T00:58:02.402Z,6.00
2023-01-03T00:59:02.231Z,6.01
2023-01-03T01:00:02.297Z,6.00
2023-01-03T01:01:02.236Z,6.01
2023-01-03T01:02:02.593Z,6.03
2023-01-03T01:03:02.527Z,6.01
2023-01-03T01:04:02.460Z,6.00
2023-01-03T01:05:02.402Z,6.01
2023-01-03T01:06:02.153Z,6.03
2023-01-03T01:07:02.185Z,5.98
2023-01-03T01:08:02.142Z,6.01
2023-01-03T01:09:02.176Z,6.01
2023-01-03T01:10:02.172Z,5.98
2023-01-03T01:11:02.241Z,6.00
2023-01-03T01:12:02.110Z,6.00
2023-01-03T01:13:02.080Z,6.01
2023-01-03T01:14:02.061Z,6.01
2023-01-03T01:15:02.132Z,6.03
2023-01-03T01:16:02.128Z,6.00
2023-01-03T01:17:02.072Z,6.03
2023-01-03T01:18:02.027Z,5.98
2023-01-03T01:19:02.004Z,5.98
2023-01-03T01:20:01.976Z,6.01
2023-01-03T01:21:02.001Z,6.00
2023-01-03T01:22:02.040Z,6.00
2023-01-03T01:23:01.999Z,6.01
2023-01-03T01:24:01.998Z,6.01
2023-01-03T01:25:01.964Z,6.09
2023-01-03T01:26:01.958Z,6.11
2023-01-03T01:27:01.956Z,6.16
2023-01-03T01:28:02.130Z,6.18
2023-01-03T01:29:02.123Z,6.16
2023-01-03T01:30:01.925Z,6.14
2023-01-03T01:31:01.960Z,6.14
2023-01-03T01:32:02.211Z,6.11
2023-01-03T01:33:02.081Z,6.10
2023-01-03T01:34:01.926Z,6.09
2023-01-03T01:35:02.067Z,6.06
2023-01-03T01:36:01.814Z,6.03
2023-01-03T01:37:02.227Z,6.01
2023-01-03T01:38:01.980Z,5.98
2023-01-03T01:39:01.872Z,5.98
2023-01-03T01:40:01.981Z,5.98
2023-01-03T01:41:01.798Z,6.00
2023-01-03T01:42:01.916Z,5.98
2023-01-03T01:43:01.909Z,5.98
2023-01-03T01:44:01.789Z,5.98
2023-01-03T01:45:01.827Z,5.95
2023-01-03T01:46:02.076Z,5.95
2023-01-03T01:47:01.747Z,5.92
2023-01-03T01:48:01.758Z,5.91
2023-01-03T01:49:01.743Z,5.89
2023-01-03T01:50:01.733Z,5.88
2023-01-03T01:51:01.701Z,5.88
2023-01-03T01:52:01.844Z,5.91
2023-01-03T01:53:01.793Z,5.93
2023-01-03T01:54:01.885Z,6.00
2023-01-03T01:55:01.675Z,6.04
2023-01-03T01:56:01.662Z,6.06
2023-01-03T01:57:01.811Z,6.09
2023-01-03T01:58:02.119Z,6.10
2023-01-03T01:59:01.745Z,6.14
2023-01-03T02:00:01.838Z,6.14
2023-01-03T02:01:01.675Z,6.11
2023-01-03T02:02:01.803Z,6.14
2023-01-03T02:03:01.796Z,6.16
2023-01-03T02:04:01.657Z,6.19
2023-01-03T02:05:01.798Z,6.25
2023-01-03T02:06:01.648Z,6.26
2023-01-03T02:07:01.748Z,6.28
2023-01-03T02:08:01.845Z,6.29
2023-01-03T02:09:01.552Z,6.29
2023-01-03T02:10:01.683Z,6.30
2023-01-03T02:11:01.758Z,6.35
2023-01-03T02:12:01.514Z,6.40
2023-01-03T02:13:01.768Z,6.38
2023-01-03T02:14:01.515Z,6.41
2023-01-03T02:15:01.462Z,6.41
2023-01-03T02:16:01.764Z,6.40
2023-01-03T02:17:01.460Z,6.36
2023-01-03T02:18:01.490Z,6.33
2023-01-03T02:19:01.434Z,6.26
2023-01-03T02:20:01.506Z,6.26
2023-01-03T02:21:01.615Z,6.26
2023-01-03T02:22:01.578Z,6.25
2023-01-03T02:23:01.425Z,6.26
2023-01-03T02:24:01.378Z,6.25
2023-01-03T02:25:01.377Z,6.29
2023-01-03T02:26:01.381Z,6.29
2023-01-03T02:27:01.545Z,6.30
2023-01-03T02:28:01.374Z,6.30
2023-01-03T02:29:01.624Z,6.32
2023-01-03T02:30:01.371Z,6.33
2023-01-03T02:31:01.604Z,6.35
2023-01-03T02:32:01.391Z,6.35
2023-01-03T02:33:01.478Z,6.36
2023-01-03T02:34:01.387Z,6.38
2023-01-03T02:35:01.481Z,6.40
2023-01-03T02:36:01.289Z,6.41
2023-01-03T02:37:01.263Z,6.46
2023-01-03T02:38:01.362Z,6.46
2023-01-03T02:39:01.215Z,6.48
2023-01-03T02:40:01.385Z,6.51
2023-01-03T02:41:01.204Z,6.50
2023-01-03T02:42:01.213Z,6.54
2023-01-03T02:43:01.289Z,6.56
2023-01-03T02:44:01.255Z,6.58
2023-01-03T02:45:01.159Z,6.58
2023-01-03T02:46:01.228Z,6.62
2023-01-03T02:47:01.302Z,6.61
2023-01-03T02:48:01.625Z,6.59
2023-01-03T02:49:01.227Z,6.62
2023-01-03T02:50:01.098Z,6.61
2023-01-03T02:51:01.122Z,6.62
2023-01-03T02:52:01.266Z,6.62
2023-01-03T02:53:01.068Z,6.62
2023-01-03T02:54:01.061Z,6.62
2023-01-03T02:55:01.140Z,6.63
2023-01-03T02:56:01.032Z,6.65
2023-01-03T02:57:01.449Z,6.68
2023-01-03T02:58:01.075Z,6.68
2023-01-03T02:59:01.123Z,6.68
2023-01-03T03:00:01.078Z,6.68
2023-01-03T03:01:01.135Z,6.69
2023-01-03T03:02:01.136Z,6.66
2023-01-03T03:03:01.361Z,6.68
2023-01-03T03:04:01.120Z,6.66
2023-01-03T03:05:00.981Z,6.66
2023-01-03T03:06:01.264Z,6.68
2023-01-03T03:07:00.926Z,6.66
2023-01-03T03:08:01.060Z,6.69
2023-01-03T03:09:01.141Z,6.69
2023-01-03T03:10:01.064Z,6.69
2023-01-03T03:11:00.881Z,6.69
2023-01-03T03:12:00.880Z,6.69
2023-01-03T03:13:00.893Z,6.71
2023-01-03T03:14:01.045Z,6.69
2023-01-03T03:15:01.056Z,6.69
2023-01-03T03:16:00.924Z,6.66
2023-01-03T03:17:01.005Z,6.68
2023-01-03T03:18:01.433Z,6.63
2023-01-03T03:19:00.901Z,6.62
2023-01-03T03:20:06.232Z,6.61
2023-01-03T03:21:00.853Z,6.56
2023-01-03T03:22:00.983Z,6.53
2023-01-03T03:23:00.778Z,6.51
2023-01-03T03:24:00.786Z,6.48
2023-01-03T03:25:00.813Z,6.44
2023-01-03T03:26:00.833Z,6.40
2023-01-03T03:27:00.759Z,6.33
2023-01-03T03:28:00.754Z,6.30
2023-01-03T03:29:00.890Z,6.26
2023-01-03T03:30:00.725Z,6.26
2023-01-03T03:31:00.757Z,6.21
2023-01-03T03:32:00.713Z,6.16
2023-01-03T03:33:00.926Z,6.11
2023-01-03T03:34:00.998Z,6.10
2023-01-03T03:35:00.789Z,6.07
2023-01-03T03:36:00.657Z,6.07
2023-01-03T03:37:00.881Z,6.04
2023-01-03T03:38:00.845Z,6.03
2023-01-03T03:39:00.637Z,6.00
2023-01-03T03:40:00.728Z,6.01
2023-01-03T03:41:00.716Z,6.03
2023-01-03T03:42:00.709Z,6.01
2023-01-03T03:43:00.606Z,6.06
2023-01-03T03:44:00.601Z,6.06
2023-01-03T03:45:02.347Z,6.10
2023-01-03T03:46:00.629Z,6.07
2023-01-03T03:47:04.222Z,6.10
2023-01-03T03:48:00.720Z,6.09
2023-01-03T03:49:00.566Z,6.10
2023-01-03T03:50:00.679Z,6.13
2023-01-03T03:51:00.517Z,6.16
2023-01-03T03:52:00.549Z,6.18
2023-01-03T03:53:00.496Z,6.16
2023-01-03T03:54:00.506Z,6.16
2023-01-03T03:55:00.505Z,6.18
2023-01-03T03:56:00.625Z,6.18
2023-01-03T03:57:00.644Z,6.18
2023-01-03T03:58:00.666Z,6.19
2023-01-03T03:59:00.443Z,6.18
2023-01-03T04:00:00.443Z,6.18
2023-01-03T04:01:00.423Z,6.16
2023-01-03T04:02:00.721Z,6.13
2023-01-03T04:03:00.536Z,6.09
2023-01-03T04:04:00.565Z,6.06
2023-01-03T04:05:00.355Z,5.98
2023-01-03T04:06:00.429Z,5.95
2023-01-03T04:07:00.342Z,5.91
2023-01-03T04:08:00.339Z,5.88
2023-01-03T04:09:00.325Z,5.82
2023-01-03T04:10:00.397Z,5.78
2023-01-03T04:11:00.347Z,5.73
2023-01-03T04:12:00.287Z,5.66
2023-01-03T04:13:00.291Z,5.66
2023-01-03T04:14:00.328Z,5.64
2023-01-03T04:15:00.295Z,5.64
2023-01-03T04:16:00.355Z,5.60
2023-01-03T04:17:00.398Z,5.57
2023-01-03T04:18:00.244Z,5.50
2023-01-03T04:19:00.249Z,5.45
2023-01-03T04:20:00.235Z,5.41
2023-01-03T04:21:00.289Z,5.38
2023-01-03T04:22:00.257Z,5.40
2023-01-03T04:23:00.320Z,5.40
2023-01-03T04:24:00.200Z,5.40
2023-01-03T04:25:00.264Z,5.37
2023-01-03T04:26:00.207Z,5.32
2023-01-03T04:27:00.238Z,5.28
2023-01-03T04:28:00.314Z,5.20
2023-01-03T04:29:00.156Z,5.20
2023-01-03T04:30:00.249Z,5.22
2023-01-03T04:31:00.159Z,5.20
2023-01-03T04:32:00.184Z,5.17
2023-01-03T04:33:00.104Z,5.16
2023-01-03T04:34:00.256Z,5.13
2023-01-03T04:35:00.375Z,5.10
2023-01-03T04:36:00.255Z,5.05
2023-01-03T04:37:00.270Z,5.01
2023-01-03T04:38:00.194Z,5.02
2023-01-03T04:39:00.185Z,5.04
2023-01-03T04:40:00.158Z,4.99
2023-01-03T04:41:00.031Z,5.01
2023-01-03T04:41:59.988Z,4.99
2023-01-03T04:43:00.196Z,4.95
2023-01-03T04:44:00.141Z,4.95
2023-01-03T04:45:00.136Z,4.95
2023-01-03T04:46:00.302Z,4.95
2023-01-03T04:47:00.349Z,4.92
2023-01-03T04:48:00.139Z,4.88
2023-01-03T04:48:59.931Z,4.83
2023-01-03T04:49:59.907Z,4.79
2023-01-03T04:51:00.134Z,4.79
2023-01-03T04:52:00.177Z,4.75
2023-01-03T04:53:00.060Z,4.73
2023-01-03T04:53:59.894Z,4.69
2023-01-03T04:54:59.914Z,4.67
2023-01-03T04:55:59.893Z,4.61
2023-01-03T04:57:00.124Z,4.61
2023-01-03T04:57:59.907Z,4.58
2023-01-03T04:59:00.116Z,4.58
2023-01-03T04:59:59.824Z,4.52
2023-01-03T05:01:00.259Z,4.50
2023-01-03T05:01:59.980Z,4.47
2023-01-03T05:03:00.044Z,4.43
2023-01-03T05:04:00.095Z,4.43
2023-01-03T05:04:59.935Z,4.36
2023-01-03T05:05:59.768Z,4.36
2023-01-03T05:06:59.885Z,4.29
2023-01-03T05:07:59.896Z,4.29
2023-01-03T05:08:59.745Z,4.25
2023-01-03T05:09:59.801Z,4.21
2023-01-03T05:10:59.723Z,4.19
2023-01-03T05:12:00.203Z,4.16
2023-01-03T05:12:59.955Z,4.10
2023-01-03T05:13:59.689Z,4.07
2023-01-03T05:14:59.767Z,4.06
2023-01-03T05:15:59.874Z,4.03
2023-01-03T05:16:59.833Z,4.00
2023-01-03T05:17:59.841Z,3.94
2023-01-03T05:18:59.658Z,3.89
2023-01-03T05:19:59.677Z,3.94
2023-01-03T05:20:59.815Z,3.94
2023-01-03T05:21:59.756Z,3.96
2023-01-03T05:22:59.690Z,4.01
2023-01-03T05:23:59.582Z,4.04
2023-01-03T05:24:59.719Z,4.04
2023-01-03T05:25:59.561Z,4.04
2023-01-03T05:26:59.617Z,4.04
2023-01-03T05:27:59.642Z,4.03
2023-01-03T05:28:59.704Z,4.01
2023-01-03T05:29:59.576Z,3.98
2023-01-03T05:30:59.560Z,3.94
2023-01-03T05:31:59.828Z,3.89
2023-01-03T05:32:59.510Z,3.88
2023-01-03T05:33:59.537Z,3.88
2023-01-03T05:34:59.533Z,3.86
2023-01-03T05:35:59.579Z,3.82
2023-01-03T05:36:59.473Z,3.82
2023-01-03T05:37:59.467Z,3.82
2023-01-03T05:38:59.482Z,3.80
2023-01-03T05:39:59.725Z,3.76
2023-01-03T05:40:59.533Z,3.75
2023-01-03T05:41:59.486Z,3.78
2023-01-03T05:42:59.416Z,3.82
2023-01-03T05:43:59.388Z,3.86
2023-01-03T05:44:59.511Z,3.89
2023-01-03T05:45:59.508Z,3.96
2023-01-03T05:46:59.568Z,4.00
2023-01-03T05:47:59.788Z,4.04
2023-01-03T05:48:59.373Z,4.07
2023-01-03T05:49:59.353Z,4.08
2023-01-03T05:50:59.497Z,4.14
2023-01-03T05:51:59.344Z,4.12
2023-01-03T05:52:59.664Z,4.15
2023-01-03T05:53:59.295Z,4.15
2023-01-03T05:54:59.287Z,4.15
2023-01-03T05:55:59.437Z,4.16
2023-01-03T05:56:59.424Z,4.16
2023-01-03T05:57:59.295Z,4.18
2023-01-03T05:58:59.616Z,4.21
2023-01-03T05:59:59.392Z,4.21
2023-01-03T06:00:59.375Z,4.19
2023-01-03T06:01:59.631Z,4.18
2023-01-03T06:02:59.346Z,4.18
2023-01-03T06:03:59.551Z,4.18
2023-01-03T06:04:59.407Z,4.21
2023-01-03T06:05:59.166Z,4.19
2023-01-03T06:06:59.197Z,4.25
2023-01-03T06:07:59.367Z,4.32
2023-01-03T06:08:59.144Z,4.34
2023-01-03T06:09:59.225Z,4.33
2023-01-03T06:10:59.135Z,4.37
2023-01-03T06:11:59.141Z,4.34
2023-01-03T06:12:59.154Z,4.36
2023-01-03T06:13:59.083Z,4.36
2023-01-03T06:14:59.244Z,4.36
2023-01-03T06:15:59.314Z,4.34
2023-01-03T06:16:59.204Z,4.29
2023-01-03T06:17:59.119Z,4.26
2023-01-03T06:18:59.211Z,4.25
2023-01-03T06:19:59.082Z,4.21
2023-01-03T06:20:59.057Z,4.15
2023-01-03T06:21:59.053Z,4.10
2023-01-03T06:22:59.289Z,4.06
2023-01-03T06:23:59.009Z,4.00
2023-01-03T06:24:59.025Z,3.97
2023-01-03T06:25:59.163Z,3.90
2023-01-03T06:26:59.014Z,3.86
2023-01-03T06:27:59.067Z,3.80
2023-01-03T06:28:59.244Z,3.78
2023-01-03T06:29:58.996Z,3.75
2023-01-03T06:30:59.114Z,3.68
2023-01-03T06:32:02.274Z,3.65
2023-01-03T06:32:59.317Z,3.62
2023-01-03T06:33:58.964Z,3.58
2023-01-03T06:34:59.207Z,3.52
2023-01-03T06:35:59.217Z,3.49
2023-01-03T06:36:58.915Z,3.46
2023-01-03T06:37:59.301Z,3.43
2023-01-03T06:38:58.928Z,3.40
2023-01-03T06:39:59.035Z,3.39
2023-01-03T06:40:59.057Z,3.33
2023-01-03T06:41:58.811Z,3.30
2023-01-03T06:42:59.128Z,3.24
2023-01-03T06:43:58.972Z,3.24
2023-01-03T06:44:58.979Z,3.20
2023-01-03T06:45:58.903Z,3.20
2023-01-03T06:46:59.045Z,3.20
2023-01-03T06:47:59.221Z,3.20
2023-01-03T06:48:58.787Z,3.27
2023-01-03T06:49:58.965Z,3.33
2023-01-03T06:50:58.917Z,3.40
2023-01-03T06:51:58.973Z,3.44
2023-01-03T06:52:59.196Z,3.49
2023-01-03T06:53:58.879Z,3.53
2023-01-03T06:54:58.713Z,3.58
2023-01-03T06:55:59.054Z,3.62
2023-01-03T06:56:58.646Z,3.68
2023-01-03T06:57:58.693Z,3.76
2023-01-03T06:58:58.763Z,3.82
2023-01-03T06:59:58.659Z,3.86
2023-01-03T07:00:58.799Z,3.92
2023-01-03T07:01:59.005Z,3.98
2023-01-03T07:02:58.666Z,4.00
2023-01-03T07:03:58.668Z,4.07
2023-01-03T07:04:58.681Z,4.12
2023-01-03T07:05:58.689Z,4.16
2023-01-03T07:06:58.575Z,4.19
2023-01-03T07:07:58.641Z,4.25
2023-01-03T07:08:58.649Z,4.32
2023-01-03T07:09:58.614Z,4.34
2023-01-03T07:10:58.551Z,4.40
2023-01-03T07:11:58.647Z,4.43
2023-01-03T07:12:58.748Z,4.46
2023-01-03T07:13:58.543Z,4.46
2023-01-03T07:14:58.693Z,4.52
2023-01-03T07:15:58.576Z,4.55
2023-01-03T07:16:58.554Z,4.57
2023-01-03T07:17:58.725Z,4.57
2023-01-03T07:18:58.527Z,4.59
2023-01-03T07:19:58.601Z,4.62
2023-01-03T07:20:58.507Z,4.64
2023-01-03T07:21:58.456Z,4.64
2023-01-03T07:22:58.406Z,4.64
2023-01-03T07:23:58.621Z,4.67
2023-01-03T07:24:58.400Z,4.75
2023-01-03T07:25:58.373Z,4.77
2023-01-03T07:26:58.472Z,4.80
2023-01-03T07:28:05.400Z,4.89
2023-01-03T07:28:58.567Z,4.89
2023-01-03T07:29:58.549Z,4.92
2023-01-03T07:30:58.391Z,4.92
2023-01-03T07:31:58.920Z,4.92
2023-01-03T07:32:58.292Z,4.95
2023-01-03T07:33:58.341Z,4.95
2023-01-03T07:34:58.367Z,4.98
2023-01-03T07:35:58.308Z,4.98
2023-01-03T07:36:58.680Z,4.99
2023-01-03T07:37:58.520Z,5.01
2023-01-03T07:38:58.448Z,5.04
2023-01-03T07:39:58.446Z,5.05
2023-01-03T07:40:58.235Z,5.02
2023-01-03T07:41:58.417Z,5.01
2023-01-03T07:42:58.279Z,4.98
2023-01-03T07:43:58.248Z,4.95
2023-01-03T07:44:58.483Z,4.92
2023-01-03T07:45:58.332Z,4.91
2023-01-03T07:46:58.277Z,4.92
2023-01-03T07:47:58.197Z,4.89
2023-01-03T07:48:58.155Z,4.95
2023-01-03T07:49:58.167Z,4.96
2023-01-03T07:50:58.285Z,4.98
2023-01-03T07:51:58.421Z,4.95
2023-01-03T07:52:58.261Z,4.94
2023-01-03T07:53:58.252Z,4.95
2023-01-03T07:54:58.099Z,4.95
2023-01-03T07:55:58.070Z,4.96
2023-01-03T07:56:58.118Z,4.96
2023-01-03T07:57:58.126Z,4.99
2023-01-03T07:58:58.074Z,5.07
2023-01-03T07:59:58.039Z,5.13
2023-01-03T08:00:58.038Z,5.13
2023-01-03T08:01:58.083Z,5.17
2023-01-03T08:02:58.271Z,5.22
2023-01-03T08:03:58.218Z,5.27
2023-01-03T08:04:58.258Z,5.25
2023-01-03T08:05:57.968Z,5.28
2023-01-03T08:06:58.170Z,5.30
2023-01-03T08:07:58.167Z,5.34
2023-01-03T08:09:02.595Z,5.43
2023-01-03T08:09:58.441Z,5.48
2023-01-03T08:10:58.027Z,5.50
2023-01-03T08:11:58.115Z,5.55
2023-01-03T08:12:58.212Z,5.56
2023-01-03T08:13:57.963Z,5.59
2023-01-03T08:14:58.008Z,5.63
2023-01-03T08:15:58.205Z,5.66
2023-01-03T08:16:58.074Z,5.67
2023-01-03T08:17:58.168Z,5.71
2023-01-03T08:18:58.031Z,5.82
2023-01-03T08:19:58.045Z,5.85
2023-01-03T08:20:57.915Z,5.92
2023-01-03T08:21:57.860Z,5.96
2023-01-03T08:22:58.004Z,6.00
2023-01-03T08:23:57.917Z,6.04
2023-01-03T08:24:57.900Z,6.07
2023-01-03T08:25:57.784Z,6.13
2023-01-03T08:26:57.817Z,6.18
2023-01-03T08:27:58.139Z,6.25
2023-01-03T08:28:57.814Z,6.30
2023-01-03T08:29:57.762Z,6.33
2023-01-03T08:30:57.742Z,6.36
2023-01-03T08:31:57.794Z,6.38
2023-01-03T08:32:57.715Z,6.43
2023-01-03T08:33:57.808Z,6.46
2023-01-03T08:34:57.701Z,6.53
2023-01-03T08:35:57.682Z,6.54
2023-01-03T08:36:57.694Z,6.61
2023-01-03T08:37:57.709Z,6.63
2023-01-03T08:38:57.729Z,6.66
2023-01-03T08:39:57.651Z,6.72
2023-01-03T08:40:57.869Z,6.79
2023-01-03T08:41:57.755Z,6.83
2023-01-03T08:42:57.618Z,6.90
2023-01-03T08:43:57.611Z,6.91
2023-01-03T08:44:57.624Z,6.95
2023-01-03T08:45:57.703Z,6.98
2023-01-03T08:46:57.616Z,7.01
2023-01-03T08:47:57.589Z,7.02
2023-01-03T08:48:57.543Z,7.02
2023-01-03T08:49:57.649Z,7.01
2023-01-03T08:50:57.596Z,6.98
2023-01-03T08:51:57.797Z,6.98
2023-01-03T08:52:57.597Z,6.99
2023-01-03T08:53:57.532Z,6.97
2023-01-03T08:54:57.651Z,6.97
2023-01-03T08:55:57.490Z,6.95
2023-01-03T08:56:57.485Z,6.95
2023-01-03T08:57:57.649Z,6.97
2023-01-03T08:58:57.762Z,6.97
2023-01-03T08:59:57.656Z,6.99
2023-01-03T09:00:57.667Z,7.04
2023-01-03T09:01:57.733Z,7.09
2023-01-03T09:02:57.828Z,7.15
2023-01-03T09:03:57.648Z,7.23
2023-01-03T09:04:57.492Z,7.34
2023-01-03T09:05:57.609Z,7.44
2023-01-03T09:06:57.502Z,7.56
2023-01-03T09:07:57.635Z,7.63
2023-01-03T09:08:57.679Z,7.72
2023-01-03T09:09:58.162Z,7.77
2023-01-03T09:10:57.598Z,7.79
2023-01-03T09:11:57.577Z,7.81
2023-01-03T09:12:57.525Z,7.82
2023-01-03T09:13:57.491Z,7.81
2023-01-03T09:14:57.511Z,7.79
2023-01-03T09:15:57.791Z,7.82
2023-01-03T09:16:57.572Z,7.81
2023-01-03T09:17:57.450Z,7.79
2023-01-03T09:18:57.283Z,7.81
2023-01-03T09:19:57.740Z,7.81
2023-01-03T09:20:57.380Z,7.82
2023-01-03T09:21:57.326Z,7.81
2023-01-03T09:22:57.482Z,7.81
2023-01-03T09:23:57.455Z,7.79
2023-01-03T09:24:57.350Z,7.81
2023-01-03T09:25:57.319Z,7.82
2023-01-03T09:26:57.424Z,7.85
2023-01-03T09:27:57.236Z,7.87
2023-01-03T09:28:57.398Z,7.90
2023-01-03T09:29:57.469Z,7.92
2023-01-03T09:30:57.358Z,7.89
2023-01-03T09:31:57.233Z,7.92
2023-01-03T09:32:57.544Z,7.94
2023-01-03T09:33:57.404Z,7.97
2023-01-03T09:34:57.155Z,7.99
2023-01-03T09:35:57.175Z,8.04
2023-01-03T09:36:57.287Z,8.10
2023-01-03T09:37:57.085Z,8.14
2023-01-03T09:38:57.045Z,8.20
2023-01-03T09:39:57.171Z,8.21
2023-01-03T09:40:57.059Z,8.25
2023-01-03T09:41:57.123Z,8.25
2023-01-03T09:42:57.088Z,8.29
2023-01-03T09:43:57.050Z,8.32
2023-01-03T09:44:57.010Z,8.36
2023-01-03T09:45:57.130Z,8.42
2023-01-03T09:46:57.251Z,8.53
2023-01-03T09:47:57.087Z,8.65
2023-01-03T09:48:56.969Z,8.84
2023-01-03T09:50:27.846Z,8.97
2023-01-03T09:51:18.460Z,9.01
2023-01-03T09:51:57.081Z,8.93
2023-01-03T09:52:56.930Z,8.91
2023-01-03T09:53:56.945Z,8.93
2023-01-03T09:54:57.166Z,8.97
2023-01-03T09:55:57.098Z,8.99
2023-01-03T09:56:56.977Z,9.05
2023-01-03T09:57:57.177Z,9.12
2023-01-03T09:58:56.883Z,9.09
2023-01-03T09:59:57.095Z,9.16
2023-01-03T10:00:57.053Z,9.18
2023-01-03T10:01:57.366Z,9.18
2023-01-03T10:02:57.095Z,9.16
2023-01-03T10:03:56.862Z,9.15
2023-01-03T10:04:57.007Z,9.13
2023-01-03T10:05:56.965Z,9.15
2023-01-03T10:06:57.019Z,9.15
2023-01-03T10:07:56.940Z,9.15
2023-01-03T10:08:56.787Z,9.18
2023-01-03T10:09:56.800Z,9.16
2023-01-03T10:10:56.742Z,9.18
2023-01-03T10:11:56.904Z,9.30
2023-01-03T10:12:56.810Z,9.40
2023-01-03T10:13:56.723Z,9.46
2023-01-03T10:14:56.674Z,9.43
2023-01-03T10:15:56.823Z,9.32
2023-01-03T10:16:56.879Z,9.28
2023-01-03T10:17:56.902Z,9.21
2023-01-03T10:18:56.659Z,9.18
2023-01-03T10:19:56.726Z,9.18
2023-01-03T10:20:56.669Z,9.18
2023-01-03T10:21:56.827Z,9.12
2023-01-03T10:22:56.923Z,9.10
2023-01-03T10:23:56.632Z,9.10
2023-01-03T10:24:56.609Z,9.06
2023-01-03T10:25:56.804Z,9.01
2023-01-03T10:26:56.594Z,8.97
2023-01-03T10:27:56.624Z,8.94
2023-01-03T10:28:56.561Z,8.90
2023-01-03T10:29:56.537Z,8.90
2023-01-03T10:31:00.788Z,8.87
2023-01-03T10:31:56.731Z,8.88
2023-01-03T10:32:56.566Z,8.90
2023-01-03T10:33:56.537Z,8.94
2023-01-03T10:34:56.511Z,8.99
2023-01-03T10:35:56.591Z,9.01
2023-01-03T10:36:56.514Z,9.04
2023-01-03T10:37:56.507Z,9.04
2023-01-03T10:38:56.456Z,9.04
2023-01-03T10:39:56.489Z,9.06
2023-01-03T10:40:56.474Z,9.06
2023-01-03T10:41:56.416Z,9.12
2023-01-03T10:42:56.567Z,9.15
2023-01-03T10:43:56.407Z,9.10
2023-01-03T10:44:56.563Z,9.10
2023-01-03T10:45:56.606Z,9.06
2023-01-03T10:46:56.445Z,9.06
2023-01-03T10:47:56.376Z,9.10
2023-01-03T10:49:56.379Z,9.16
2023-01-03T10:50:56.328Z,9.16
2023-01-03T10:51:56.372Z,9.15
2023-01-03T10:52:56.356Z,9.12
2023-01-03T10:53:56.540Z,9.12
2023-01-03T10:54:56.283Z,9.13
2023-01-03T10:55:56.301Z,9.12
2023-01-03T10:56:56.274Z,9.15
2023-01-03T10:57:56.327Z,9.15
2023-01-03T10:58:56.280Z,9.13
2023-01-03T10:59:56.246Z,9.10
2023-01-03T11:00:56.347Z,9.09
2023-01-03T11:01:56.753Z,9.09
2023-01-03T11:02:56.400Z,9.09
2023-01-03T11:03:56.595Z,9.09
2023-01-03T11:04:56.197Z,9.09
2023-01-03T11:05:56.343Z,9.10
2023-01-03T11:06:56.180Z,9.12
2023-01-03T11:07:56.169Z,9.12
2023-01-03T11:08:56.129Z,9.12
2023-01-03T11:09:56.333Z,9.10
2023-01-03T11:10:56.152Z,9.09
2023-01-03T11:11:56.190Z,9.06
2023-01-03T11:12:56.122Z,9.06
2023-01-03T11:13:56.276Z,9.10
2023-01-03T11:14:56.132Z,9.10
2023-01-03T11:15:56.122Z,9.10
2023-01-03T11:16:56.238Z,9.12
2023-01-03T11:17:56.067Z,9.12
2023-01-03T11:18:56.054Z,9.12
2023-01-03T11:19:56.064Z,9.10
2023-01-03T11:20:56.032Z,9.10
2023-01-03T11:21:56.649Z,9.10
2023-01-03T11:22:56.069Z,9.09
2023-01-03T11:23:56.009Z,9.05
2023-01-03T11:24:56.029Z,9.06
2023-01-03T11:25:56.277Z,9.06
2023-01-03T11:26:56.413Z,9.09
2023-01-03T11:27:55.991Z,9.04
2023-01-03T11:28:56.084Z,9.05
2023-01-03T11:29:55.945Z,9.01
2023-01-03T11:30:56.020Z,9.02
2023-01-03T11:31:56.931Z,9.01
2023-01-03T11:32:55.958Z,9.01
2023-01-03T11:33:56.327Z,9.01
2023-01-03T11:35:22.079Z,9.01
2023-01-03T11:35:55.879Z,9.01
2023-01-03T11:36:55.869Z,9.02
2023-01-03T11:37:55.867Z,9.04
2023-01-03T11:38:55.872Z,9.02
2023-01-03T11:39:55.867Z,9.02
2023-01-03T11:40:55.826Z,9.01
2023-01-03T11:41:55.812Z,9.02
2023-01-03T11:42:55.986Z,9.01
2023-01-03T11:43:55.819Z,9.01
2023-01-03T11:44:55.806Z,9.02
2023-01-03T11:45:56.035Z,9.01
2023-01-03T11:46:55.771Z,8.99
2023-01-03T11:47:55.963Z,9.01
2023-01-03T11:48:55.918Z,9.01
2023-01-03T11:49:56.434Z,9.01
2023-01-03T11:50:55.837Z,9.02
2023-01-03T11:51:55.753Z,9.02
2023-01-03T11:52:55.844Z,9.02
2023-01-03T11:53:55.713Z,9.01
2023-01-03T11:54:55.969Z,9.01
2023-01-03T11:55:55.722Z,9.04
2023-01-03T11:56:55.754Z,9.06
2023-01-03T11:57:55.735Z,9.05
2023-01-03T11:58:55.799Z,9.09
2023-01-03T11:59:55.653Z,9.09
2023-01-03T12:00:55.640Z,9.12
2023-01-03T12:01:56.055Z,9.12
2023-01-03T12:02:55.698Z,9.15
2023-01-03T12:03:55.789Z,9.15
2023-01-03T12:04:55.604Z,9.16
2023-01-03T12:05:55.938Z,9.20
2023-01-03T12:07:14.246Z,9.21
2023-01-03T12:07:55.619Z,9.25
2023-01-03T12:08:55.720Z,9.24
2023-01-03T12:09:55.745Z,9.25
2023-01-03T12:10:55.555Z,9.30
2023-01-03T12:11:55.561Z,9.32
2023-01-03T12:12:55.549Z,9.35
2023-01-03T12:13:55.489Z,9.40
2023-01-03T12:14:55.499Z,9.56
2023-01-03T12:15:55.539Z,9.64
2023-01-03T12:16:55.475Z,9.71
2023-01-03T12:17:55.477Z,9.75
2023-01-03T12:18:55.514Z,9.76
2023-01-03T12:19:55.417Z,9.78
2023-01-03T12:20:55.459Z,9.78
2023-01-03T12:21:55.451Z,9.79
2023-01-03T12:22:55.398Z,9.82
2023-01-03T12:23:55.607Z,9.88
2023-01-03T12:25:00.692Z,9.88
2023-01-03T12:25:55.633Z,9.93
2023-01-03T12:26:55.566Z,9.99
2023-01-03T12:27:55.650Z,10.00
2023-01-03T12:28:55.360Z,10.06
2023-01-03T12:29:55.349Z,10.09
2023-01-03T12:30:55.384Z,10.15
2023-01-03T12:31:55.550Z,10.22
2023-01-03T12:32:55.410Z,10.21
2023-01-03T12:33:55.336Z,10.25
2023-01-03T12:34:55.261Z,10.24
2023-01-03T12:35:55.494Z,10.26
2023-01-03T12:36:55.274Z,10.28
2023-01-03T12:37:55.283Z,10.32
2023-01-03T12:38:55.258Z,10.36
2023-01-03T12:39:55.420Z,10.37
2023-01-03T12:40:55.341Z,10.37
2023-01-03T12:41:55.438Z,10.37
2023-01-03T12:42:55.251Z,10.36
2023-01-03T12:43:56.364Z,10.36
2023-01-03T12:44:55.178Z,10.37
2023-01-03T12:45:55.211Z,10.37
2023-01-03T12:46:55.265Z,10.40
2023-01-03T12:47:55.505Z,10.39
2023-01-03T12:48:55.155Z,10.36
2023-01-03T12:49:55.167Z,10.36
2023-01-03T12:50:55.123Z,10.40
2023-01-03T12:51:55.175Z,10.40
2023-01-03T12:52:55.091Z,10.43
2023-01-03T12:53:55.215Z,10.43
2023-01-03T12:54:55.060Z,10.46
2023-01-03T12:55:55.110Z,10.47
2023-01-03T12:56:55.327Z,10.47
2023-01-03T12:57:55.114Z,10.47
2023-01-03T12:58:55.098Z,10.46
2023-01-03T12:59:55.062Z,10.44
2023-01-03T13:00:55.093Z,10.42
2023-01-03T13:01:55.223Z,10.40
2023-01-03T13:02:55.219Z,10.42
2023-01-03T13:03:55.060Z,10.37
2023-01-03T13:04:54.964Z,10.36
2023-01-03T13:05:54.987Z,10.30
2023-01-03T13:06:54.970Z,10.26
2023-01-03T13:07:54.948Z,10.28
2023-01-03T13:08:54.929Z,10.30
2023-01-03T13:10:00.795Z,10.33
2023-01-03T13:10:54.941Z,10.37
2023-01-03T13:11:54.887Z,10.42
2023-01-03T13:12:55.044Z,10.40
2023-01-03T13:13:54.872Z,10.40
2023-01-03T13:14:55.030Z,10.39
2023-01-03T13:15:55.453Z,10.39
2023-01-03T13:16:54.949Z,10.36